createdAt,value
2022-09-16T00:02:19.235Z,100.00
2022-09-16T00:04:54.026Z,100.00
2022-09-16T00:07:25.777Z,100.00
2022-09-16T00:09:59.234Z,100.00
2022-09-16T00:12:32.150Z,100.00
2022-09-16T00:15:05.697Z,100.00
2022-09-16T00:17:38.826Z,100.00
2022-09-16T00:20:12.325Z,100.00
2022-09-16T00:22:45.112Z,100.00
2022-09-16T00:25:18.199Z,100.00
2022-09-16T00:27:51.560Z,100.00
2022-09-16T00:30:25.489Z,100.00
2022-09-16T00:32:58.601Z,100.00
2022-09-16T00:35:31.837Z,100.00
2022-09-16T00:38:04.747Z,100.00
2022-09-16T00:40:49.193Z,100.00
2022-09-16T00:43:22.680Z,100.00
2022-09-16T00:46:02.578Z,100.00
2022-09-16T00:48:36.651Z,100.00
2022-09-16T00:51:11.255Z,100.00
2022-09-16T00:54:00.456Z,100.00
2022-09-16T00:56:38.600Z,100.00
2022-09-16T00:59:33.862Z,100.00
2022-09-16T01:02:10.969Z,100.00
2022-09-16T01:05:06.703Z,100.00
2022-09-16T01:07:43.473Z,100.00
2022-09-16T01:10:20.165Z,100.00
2022-09-16T01:13:04.661Z,100.00
2022-09-16T01:16:13.837Z,100.00
2022-09-16T01:18:50.192Z,100.00
2022-09-16T01:21:39.763Z,100.00
2022-09-16T01:24:19.993Z,100.00
2022-09-16T01:27:21.387Z,100.00
2022-09-16T01:30:22.994Z,100.00
2022-09-16T01:33:05.419Z,100.00
2022-09-16T01:35:52.612Z,100.00
2022-09-16T01:38:53.036Z,100.00
2022-09-16T01:41:42.520Z,100.00
2022-09-16T01:44:54.266Z,100.00
2022-09-16T01:47:55.945Z,100.00
2022-09-16T01:50:43.218Z,100.00
2022-09-16T01:53:37.462Z,100.00
2022-09-16T01:56:28.197Z,100.00
2022-09-16T01:59:10.184Z,100.00
2022-09-16T02:01:54.395Z,100.00
2022-09-16T02:04:35.289Z,100.00
2022-09-16T02:07:11.022Z,100.00
2022-09-16T02:09:49.321Z,100.00
2022-09-16T02:12:26.685Z,100.00
2022-09-16T02:15:04.055Z,100.00
2022-09-16T02:17:41.298Z,100.00
2022-09-16T02:20:17.761Z,100.00
2022-09-16T02:22:55.272Z,100.00
2022-09-16T02:25:28.978Z,100.00
2022-09-16T02:28:04.654Z,100.00
2022-09-16T02:30:38.382Z,100.00
2022-09-16T02:33:13.690Z,100.00
2022-09-16T02:35:50.373Z,100.00
2022-09-16T02:38:36.660Z,100.00
2022-09-16T02:41:11.424Z,100.00
2022-09-16T02:43:47.423Z,100.00
2022-09-16T02:46:33.698Z,100.00
2022-09-16T02:49:17.598Z,100.00
2022-09-16T02:52:28.503Z,100.00
2022-09-16T02:55:32.867Z,100.00
2022-09-16T02:58:08.100Z,100.00
2022-09-16T03:00:46.922Z,100.00
2022-09-16T03:03:20.463Z,100.00
2022-09-16T03:06:19.723Z,100.00
2022-09-16T03:08:54.418Z,100.00
2022-09-16T03:11:35.380Z,100.00
2022-09-16T03:14:37.752Z,100.00
2022-09-16T03:17:42.379Z,100.00
2022-09-16T03:20:35.128Z,100.00
2022-09-16T03:23:46.105Z,100.00
2022-09-16T03:26:44.730Z,100.00
2022-09-16T03:29:29.995Z,100.00
2022-09-16T03:32:26.030Z,100.00
2022-09-16T03:35:05.964Z,100.00
2022-09-16T03:37:40.268Z,100.00
2022-09-16T03:40:16.789Z,100.00
2022-09-16T03:42:49.930Z,100.00
2022-09-16T03:45:24.531Z,100.00
2022-09-16T03:47:57.241Z,100.00
2022-09-16T03:50:30.201Z,100.00
2022-09-16T03:53:03.731Z,100.00
2022-09-16T03:55:37.071Z,100.00
2022-09-16T03:58:10.282Z,100.00
2022-09-16T04:00:43.322Z,100.00
2022-09-16T04:03:17.225Z,100.00
2022-09-16T04:05:55.741Z,100.00
2022-09-16T04:08:28.402Z,100.00
2022-09-16T04:11:05.317Z,100.00
2022-09-16T04:13:39.237Z,100.00
2022-09-16T04:16:12.796Z,100.00
2022-09-16T04:18:45.557Z,100.00
2022-09-16T04:21:20.253Z,100.00
2022-09-16T04:23:54.903Z,100.00
2022-09-16T04:26:27.704Z,100.00
2022-09-16T04:29:01.159Z,100.00
2022-09-16T04:31:34.182Z,100.00
2022-09-16T04:34:07.797Z,100.00
2022-09-16T04:36:40.737Z,100.00
2022-09-16T04:39:14.036Z,100.00
2022-09-16T04:41:47.089Z,100.00
2022-09-16T04:44:20.054Z,100.00
2022-09-16T04:46:52.643Z,100.00
2022-09-16T04:49:25.465Z,100.00
2022-09-16T04:51:58.298Z,100.00
2022-09-16T04:54:31.073Z,100.00
2022-09-16T04:57:04.302Z,100.00
2022-09-16T04:59:37.088Z,100.00
2022-09-16T05:02:09.998Z,100.00
2022-09-16T05:04:43.084Z,100.00
2022-09-16T05:07:16.194Z,100.00
2022-09-16T05:09:49.158Z,100.00
2022-09-16T05:12:22.775Z,100.00
2022-09-16T05:14:57.063Z,100.00
2022-09-16T05:17:50.403Z,100.00
2022-09-16T05:20:09.186Z,100.00
2022-09-16T05:22:41.061Z,100.00
2022-09-16T05:25:14.368Z,100.00
2022-09-16T05:27:47.568Z,100.00
2022-09-16T05:30:25.804Z,100.00
2022-09-16T05:32:58.253Z,100.00
2022-09-16T05:35:31.604Z,100.00
2022-09-16T05:38:04.456Z,100.00
2022-09-16T05:40:37.460Z,100.00
2022-09-16T05:43:10.718Z,100.00
2022-09-16T05:45:43.659Z,100.00
2022-09-16T05:48:16.621Z,100.00
2022-09-16T05:51:05.192Z,100.00
2022-09-16T05:53:38.747Z,100.00
2022-09-16T05:56:22.377Z,100.00
2022-09-16T05:58:58.041Z,100.00
2022-09-16T06:01:36.492Z,100.00
2022-09-16T06:04:12.912Z,100.00
2022-09-16T06:06:48.295Z,100.00
2022-09-16T06:09:24.758Z,100.00
2022-09-16T06:12:01.941Z,100.00
2022-09-16T06:14:32.821Z,100.00
2022-09-16T06:17:05.953Z,100.00
2022-09-16T06:19:38.989Z,100.00
2022-09-16T06:22:12.384Z,100.00
2022-09-16T06:24:45.349Z,100.00
2022-09-16T06:27:19.509Z,100.00
2022-09-16T06:30:09.983Z,100.00
2022-09-16T06:32:42.982Z,100.00
2022-09-16T06:35:15.829Z,100.00
2022-09-16T06:37:48.842Z,100.00
2022-09-16T06:40:21.832Z,100.00
2022-09-16T06:43:00.167Z,100.00
2022-09-16T06:45:32.302Z,100.00
2022-09-16T06:48:05.911Z,100.00
2022-09-16T06:50:38.772Z,100.00
2022-09-16T06:53:11.642Z,99.44
2022-09-16T06:55:44.859Z,99.02
2022-09-16T06:58:17.641Z,99.13
2022-09-16T07:00:51.411Z,99.41
2022-09-16T07:03:24.231Z,98.92
2022-09-16T07:06:02.116Z,97.42
2022-09-16T07:08:36.280Z,96.97
2022-09-16T07:11:17.911Z,97.03
2022-09-16T07:13:51.898Z,97.06
2022-09-16T07:16:27.720Z,97.17
2022-09-16T07:19:01.484Z,97.03
2022-09-16T07:21:36.220Z,96.94
2022-09-16T07:24:10.697Z,97.02
2022-09-16T07:26:45.507Z,96.81
2022-09-16T07:29:21.093Z,96.59
2022-09-16T07:31:53.845Z,96.13
2022-09-16T07:34:27.170Z,96.13
2022-09-16T07:37:01.853Z,94.44
2022-09-16T07:39:34.858Z,94.30
2022-09-16T07:42:07.953Z,93.98
2022-09-16T07:44:41.442Z,94.06
2022-09-16T07:47:16.018Z,93.16
2022-09-16T07:49:49.213Z,92.43
2022-09-16T07:52:21.998Z,92.06
2022-09-16T07:54:55.097Z,92.15
2022-09-16T07:57:27.928Z,91.30
2022-09-16T08:00:01.141Z,90.87
2022-09-16T08:02:35.927Z,90.50
2022-09-16T08:05:10.310Z,90.20
2022-09-16T08:07:43.645Z,89.60
2022-09-16T08:10:16.862Z,88.79
2022-09-16T08:12:51.756Z,87.13
2022-09-16T08:15:24.793Z,85.86
2022-09-16T08:17:58.746Z,84.80
2022-09-16T08:20:31.729Z,84.80
2022-09-16T08:23:04.933Z,84.50
2022-09-16T08:25:37.901Z,84.40
2022-09-16T08:28:18.251Z,84.02
2022-09-16T08:30:53.394Z,83.07
2022-09-16T08:33:28.009Z,83.08
2022-09-16T08:36:20.392Z,83.33
2022-09-16T08:38:57.021Z,82.63
2022-09-16T08:41:55.555Z,82.63
2022-09-16T08:44:54.235Z,81.78
2022-09-16T08:48:02.120Z,81.78
2022-09-16T08:50:40.236Z,81.86
2022-09-16T08:53:18.361Z,81.64
2022-09-16T08:55:52.885Z,81.08
2022-09-16T08:58:28.251Z,80.82
2022-09-16T09:01:06.560Z,81.20
2022-09-16T09:03:46.000Z,80.49
2022-09-16T09:06:33.173Z,79.89
2022-09-16T09:09:17.415Z,78.33
2022-09-16T09:12:17.470Z,77.43
2022-09-16T09:15:28.395Z,75.36
2022-09-16T09:18:47.604Z,74.52
2022-09-16T09:21:40.216Z,74.71
2022-09-16T09:24:43.256Z,74.35
2022-09-16T09:27:34.610Z,73.37
2022-09-16T09:30:25.970Z,72.24
2022-09-16T09:33:45.657Z,71.20
2022-09-16T09:36:23.848Z,70.64
2022-09-16T09:39:32.102Z,70.07
2022-09-16T09:42:29.838Z,69.79
2022-09-16T09:45:08.458Z,69.67
2022-09-16T09:48:04.623Z,69.21
2022-09-16T09:50:50.048Z,69.02
2022-09-16T09:53:48.635Z,68.45
2022-09-16T09:56:32.010Z,68.26
2022-09-16T09:59:35.250Z,68.29
2022-09-16T10:02:18.550Z,68.15
2022-09-16T10:04:52.120Z,68.19
2022-09-16T10:07:27.305Z,68.06
2022-09-16T10:10:20.861Z,67.70
2022-09-16T10:12:54.839Z,67.15
2022-09-16T10:15:32.100Z,65.64
2022-09-16T10:18:15.298Z,63.81
2022-09-16T10:21:13.843Z,62.77
2022-09-16T10:23:58.769Z,62.85
2022-09-16T10:26:31.869Z,62.53
2022-09-16T10:29:19.918Z,62.05
2022-09-16T10:31:53.049Z,61.53
2022-09-16T10:34:40.223Z,60.55
2022-09-16T10:37:17.851Z,60.54
2022-09-16T10:39:58.935Z,60.99
2022-09-16T10:42:32.142Z,60.50
2022-09-16T10:45:26.582Z,60.52
2022-09-16T10:48:07.356Z,60.94
2022-09-16T10:50:40.340Z,60.61
2022-09-16T10:53:32.844Z,60.48
2022-09-16T10:56:09.812Z,59.46
2022-09-16T10:58:42.584Z,59.28
2022-09-16T11:01:44.295Z,59.41
2022-09-16T11:04:55.162Z,59.39
2022-09-16T11:07:45.159Z,58.06
2022-09-16T11:10:31.751Z,57.32
2022-09-16T11:13:39.731Z,57.05
2022-09-16T11:16:35.138Z,57.83
2022-09-16T11:19:42.347Z,57.35
2022-09-16T11:22:48.011Z,58.13
2022-09-16T11:25:35.057Z,57.45
2022-09-16T11:28:30.361Z,57.84
2022-09-16T11:31:35.486Z,58.86
2022-09-16T11:34:13.292Z,59.65
2022-09-16T11:37:11.443Z,60.28
2022-09-16T11:39:57.711Z,60.23
2022-09-16T11:42:35.432Z,60.69
2022-09-16T11:45:54.638Z,60.53
2022-09-16T11:48:44.818Z,60.69
2022-09-16T11:51:48.241Z,60.89
2022-09-16T11:55:01.000Z,61.25
2022-09-16T11:57:38.939Z,61.15
2022-09-16T12:00:18.801Z,60.84
2022-09-16T12:03:14.547Z,60.89
2022-09-16T12:05:54.880Z,60.91
2022-09-16T12:09:10.970Z,61.24
2022-09-16T12:11:47.407Z,61.51
2022-09-16T12:14:33.211Z,61.79
2022-09-16T12:17:25.588Z,62.34
2022-09-16T12:20:06.630Z,62.73
2022-09-16T12:22:52.694Z,63.38
2022-09-16T12:25:55.923Z,63.76
2022-09-16T12:28:51.697Z,64.45
2022-09-16T12:31:46.767Z,65.63
2022-09-16T12:34:32.807Z,66.39
2022-09-16T12:37:42.310Z,66.57
2022-09-16T12:40:20.715Z,66.68
2022-09-16T12:43:20.649Z,66.71
2022-09-16T12:46:19.526Z,66.94
2022-09-16T12:49:16.372Z,66.48
2022-09-16T12:52:05.982Z,66.06
2022-09-16T12:55:24.400Z,64.89
2022-09-16T12:58:20.056Z,64.39
2022-09-16T13:01:18.690Z,64.51
2022-09-16T13:04:14.126Z,64.34
2022-09-16T13:06:53.487Z,64.84
2022-09-16T13:09:42.100Z,65.32
2022-09-16T13:12:44.649Z,65.86
2022-09-16T13:15:07.662Z,66.72
2022-09-16T13:17:41.962Z,67.18
2022-09-16T13:20:22.133Z,67.80
2022-09-16T13:23:05.612Z,68.42
2022-09-16T13:26:01.261Z,69.18
2022-09-16T13:28:46.631Z,69.89
2022-09-16T13:31:26.026Z,70.90
2022-09-16T13:34:05.996Z,71.98
2022-09-16T13:36:40.669Z,72.88
2022-09-16T13:39:17.286Z,74.00
2022-09-16T13:41:50.332Z,74.70
2022-09-16T13:44:42.223Z,75.47
2022-09-16T13:47:18.530Z,75.47
2022-09-16T13:50:04.703Z,75.66
2022-09-16T13:52:39.245Z,75.91
2022-09-16T13:55:26.653Z,76.89
2022-09-16T13:58:28.872Z,77.88
2022-09-16T14:01:32.234Z,78.92
2022-09-16T14:04:37.863Z,80.27
2022-09-16T14:07:43.864Z,81.65
2022-09-16T14:10:24.198Z,83.53
2022-09-16T14:13:07.673Z,85.24
2022-09-16T14:15:46.689Z,86.36
2022-09-16T14:18:24.409Z,87.35
2022-09-16T14:21:05.448Z,87.94
2022-09-16T14:23:38.906Z,88.94
2022-09-16T14:26:15.599Z,89.79
2022-09-16T14:28:49.064Z,90.47
2022-09-16T14:31:24.096Z,91.53
2022-09-16T14:34:04.698Z,92.35
2022-09-16T14:36:40.862Z,92.56
2022-09-16T14:39:17.812Z,92.87
2022-09-16T14:42:00.074Z,92.95
2022-09-16T14:44:39.185Z,93.27
2022-09-16T14:47:39.830Z,93.50
2022-09-16T14:50:05.989Z,93.66
2022-09-16T14:52:39.048Z,94.03
2022-09-16T14:55:29.596Z,94.20
2022-09-16T14:58:03.447Z,94.54
2022-09-16T15:00:52.930Z,94.69
2022-09-16T15:03:51.388Z,94.69
2022-09-16T15:06:28.898Z,94.98
2022-09-16T15:09:07.312Z,95.00
2022-09-16T15:11:48.718Z,95.02
2022-09-16T15:14:22.171Z,95.00
2022-09-16T15:17:01.204Z,95.09
2022-09-16T15:19:40.174Z,94.63
2022-09-16T15:22:15.565Z,94.56
2022-09-16T15:24:52.807Z,94.24
2022-09-16T15:27:29.449Z,93.78
2022-09-16T15:30:04.863Z,93.31
2022-09-16T15:32:42.415Z,93.06
2022-09-16T15:35:31.274Z,93.51
2022-09-16T15:38:14.068Z,94.43
2022-09-16T15:40:48.012Z,95.51
2022-09-16T15:43:28.269Z,96.15
2022-09-16T15:46:05.290Z,96.77
2022-09-16T15:48:45.533Z,97.41
2022-09-16T15:51:34.464Z,97.93
2022-09-16T15:54:17.550Z,98.34
2022-09-16T15:57:32.306Z,99.03
2022-09-16T16:00:15.864Z,99.63
2022-09-16T16:02:56.229Z,100.00
2022-09-16T16:05:31.375Z,100.00
2022-09-16T16:08:09.749Z,100.00
2022-09-16T16:10:41.609Z,100.00
2022-09-16T16:13:15.013Z,100.00
2022-09-16T16:15:48.363Z,100.00
2022-09-16T16:18:22.592Z,100.00
2022-09-16T16:20:55.414Z,100.00
2022-09-16T16:23:28.901Z,100.00
2022-09-16T16:26:01.751Z,100.00
2022-09-16T16:28:36.259Z,100.00
2022-09-16T16:31:16.566Z,100.00
2022-09-16T16:33:50.193Z,100.00
2022-09-16T16:36:24.563Z,100.00
2022-09-16T16:38:57.784Z,100.00
2022-09-16T16:41:30.615Z,100.00
2022-09-16T16:44:03.459Z,100.00
2022-09-16T16:46:36.454Z,100.00
2022-09-16T16:49:09.465Z,100.00
2022-09-16T16:51:42.310Z,100.00
2022-09-16T16:54:15.974Z,100.00
2022-09-16T16:56:49.236Z,100.00
2022-09-16T16:59:23.243Z,100.00
2022-09-16T17:01:58.118Z,100.00
2022-09-16T17:04:31.112Z,100.00
2022-09-16T17:07:24.799Z,100.00
2022-09-16T17:09:40.261Z,100.00
2022-09-16T17:12:13.272Z,100.00
2022-09-16T17:14:46.721Z,100.00
2022-09-16T17:17:19.506Z,100.00
2022-09-16T17:19:53.516Z,100.00
2022-09-16T17:22:26.686Z,100.00
2022-09-16T17:24:59.855Z,100.00
2022-09-16T17:27:32.780Z,100.00
2022-09-16T17:30:06.622Z,100.00
2022-09-16T17:32:40.066Z,100.00
2022-09-16T17:35:12.917Z,100.00
2022-09-16T17:37:46.148Z,100.00
2022-09-16T17:40:20.745Z,100.00
2022-09-16T17:42:53.144Z,100.00
2022-09-16T17:45:25.896Z,100.00
2022-09-16T17:47:59.432Z,100.00
2022-09-16T17:50:32.374Z,100.00
2022-09-16T17:53:05.434Z,100.00
2022-09-16T17:55:39.086Z,100.00
2022-09-16T17:58:14.327Z,100.00
2022-09-16T18:00:47.486Z,100.00
2022-09-16T18:03:20.263Z,100.00
2022-09-16T18:05:53.944Z,100.00
2022-09-16T18:08:27.117Z,100.00
2022-09-16T18:11:00.284Z,100.00
2022-09-16T18:13:33.711Z,100.00
2022-09-16T18:16:11.044Z,100.00
2022-09-16T18:18:45.792Z,100.00
2022-09-16T18:21:20.198Z,100.00
2022-09-16T18:23:56.961Z,100.00
2022-09-16T18:26:30.426Z,100.00
2022-09-16T18:29:10.153Z,100.00
2022-09-16T18:31:45.380Z,100.00
2022-09-16T18:34:19.821Z,100.00
2022-09-16T18:36:52.537Z,100.00
2022-09-16T18:39:25.439Z,100.00
2022-09-16T18:41:58.548Z,100.00
2022-09-16T18:44:31.908Z,100.00
2022-09-16T18:47:04.958Z,100.00
2022-09-16T18:49:39.435Z,100.00
2022-09-16T18:52:13.091Z,100.00
2022-09-16T18:54:49.285Z,100.00
2022-09-16T18:57:24.431Z,100.00
2022-09-16T18:59:57.276Z,100.00
2022-09-16T19:02:30.361Z,100.00
2022-09-16T19:05:03.544Z,100.00
2022-09-16T19:07:38.478Z,100.00
2022-09-16T19:10:12.287Z,100.00
2022-09-16T19:12:45.273Z,100.00
2022-09-16T19:15:18.167Z,100.00
2022-09-16T19:17:52.825Z,100.00
2022-09-16T19:20:26.539Z,100.00
2022-09-16T19:22:59.991Z,100.00
2022-09-16T19:25:33.901Z,100.00
2022-09-16T19:28:07.034Z,100.00
2022-09-16T19:30:40.054Z,100.00
2022-09-16T19:33:13.325Z,100.00
2022-09-16T19:35:47.120Z,100.00
2022-09-16T19:38:21.515Z,100.00
2022-09-16T19:41:03.907Z,100.00
2022-09-16T19:43:37.516Z,100.00
2022-09-16T19:46:17.143Z,100.00
2022-09-16T19:48:51.327Z,100.00
2022-09-16T19:51:24.282Z,100.00
2022-09-16T19:53:58.751Z,100.00
2022-09-16T19:56:34.586Z,100.00
2022-09-16T19:59:07.670Z,100.00
2022-09-16T20:01:40.615Z,100.00
2022-09-16T20:04:13.644Z,100.00
2022-09-16T20:06:46.534Z,100.00
2022-09-16T20:09:20.346Z,100.00
2022-09-16T20:11:53.212Z,100.00
2022-09-16T20:14:27.707Z,100.00
2022-09-16T20:17:00.803Z,100.00
2022-09-16T20:19:33.854Z,100.00
2022-09-16T20:22:07.119Z,100.00
2022-09-16T20:24:42.273Z,100.00
2022-09-16T20:27:15.016Z,100.00
2022-09-16T20:29:48.453Z,100.00
2022-09-16T20:32:21.666Z,100.00
2022-09-16T20:34:54.494Z,100.00
2022-09-16T20:37:27.434Z,100.00
2022-09-16T20:40:00.558Z,100.00
2022-09-16T20:42:34.596Z,100.00
2022-09-16T20:45:08.482Z,100.00
2022-09-16T20:47:41.969Z,100.00
2022-09-16T20:50:15.135Z,100.00
2022-09-16T20:52:49.766Z,100.00
2022-09-16T20:55:22.632Z,100.00
2022-09-16T20:57:55.341Z,100.00
2022-09-16T21:00:29.006Z,100.00
2022-09-16T21:03:01.875Z,100.00
2022-09-16T21:05:35.182Z,100.00
2022-09-16T21:08:08.572Z,100.00
2022-09-16T21:10:42.301Z,100.00
2022-09-16T21:13:15.088Z,100.00
2022-09-16T21:15:59.602Z,100.00
2022-09-16T21:18:32.598Z,100.00
2022-09-16T21:21:15.681Z,100.00
2022-09-16T21:23:53.129Z,100.00
2022-09-16T21:26:30.435Z,100.00
2022-09-16T21:29:11.280Z,100.00
2022-09-16T21:31:44.954Z,100.00
2022-09-16T21:34:20.579Z,100.00
2022-09-16T21:36:53.438Z,100.00
2022-09-16T21:39:26.656Z,100.00
2022-09-16T21:41:59.678Z,100.00
2022-09-16T21:44:32.488Z,100.00
2022-09-16T21:47:07.167Z,100.00
2022-09-16T21:49:40.729Z,100.00
2022-09-16T21:52:13.440Z,100.00
2022-09-16T21:54:46.634Z,100.00
2022-09-16T21:57:20.338Z,100.00
2022-09-16T21:59:53.140Z,100.00
2022-09-16T22:02:29.144Z,100.00
2022-09-16T22:05:00.880Z,100.00
2022-09-16T22:07:34.789Z,100.00
2022-09-16T22:10:08.862Z,100.00
2022-09-16T22:12:41.964Z,100.00
2022-09-16T22:15:16.466Z,100.00
2022-09-16T22:17:51.935Z,100.00
2022-09-16T22:20:25.054Z,100.00
2022-09-16T22:22:57.776Z,100.00
2022-09-16T22:25:30.539Z,100.00
2022-09-16T22:28:03.763Z,100.00
2022-09-16T22:30:37.057Z,100.00
2022-09-16T22:33:10.269Z,100.00
2022-09-16T22:35:43.214Z,100.00
2022-09-16T22:38:16.120Z,100.00
2022-09-16T22:40:48.971Z,100.00
2022-09-16T22:43:22.100Z,100.00
2022-09-16T22:45:55.006Z,100.00
2022-09-16T22:48:28.173Z,100.00
2022-09-16T22:51:01.973Z,100.00
2022-09-16T22:53:35.505Z,100.00
2022-09-16T22:56:12.050Z,100.00
2022-09-16T22:58:45.299Z,100.00
2022-09-16T23:01:21.418Z,100.00
2022-09-16T23:03:58.486Z,100.00
2022-09-16T23:06:32.783Z,100.00
2022-09-16T23:09:07.947Z,100.00
2022-09-16T23:11:40.705Z,100.00
2022-09-16T23:14:18.731Z,100.00
2022-09-16T23:16:52.038Z,100.00
2022-09-16T23:19:25.580Z,100.00
2022-09-16T23:21:58.317Z,100.00
2022-09-16T23:24:31.414Z,100.00
2022-09-16T23:27:04.934Z,100.00
2022-09-16T23:29:38.726Z,100.00
2022-09-16T23:32:12.085Z,100.00
2022-09-16T23:34:45.212Z,100.00
2022-09-16T23:37:18.062Z,100.00
2022-09-16T23:39:51.066Z,100.00
2022-09-16T23:42:24.314Z,100.00
2022-09-16T23:44:57.173Z,100.00
2022-09-16T23:47:30.075Z,100.00
2022-09-16T23:50:03.336Z,100.00
2022-09-16T23:52:37.147Z,100.00
2022-09-16T23:55:10.753Z,100.00
2022-09-16T23:57:43.676Z,100.00
